Time;durP1;ratioP1;P1;durP2;ratioP2;P2;SDS_P1;SDS_P2;PMS_P1;PMS_P2;Temp;Humidity;BMP_temperature;BMP_pressure;BME280_temperature;BME280_humidity;BME280_pressure;Samples;Min_cycle;Max_cycle;Signal;HPM_P1;HPM_P2
2023/01/31 00:00:03;;;;;;;;;;;3.10;99.90;;;;;;5054555;28;19959;-74
2023/01/31 00:02:29;;;;;;;;;;;3.00;99.90;;;;;;5052776;28;19916;-75
2023/01/31 00:04:55;;;;;;;;;;;3.00;99.90;;;;;;5054081;28;19920;-74
2023/01/31 00:07:20;;;;;;;;;;;3.00;99.90;;;;;;5052829;28;19912;-74
2023/01/31 00:09:46;;;;;;;;;;;3.00;99.90;;;;;;5052775;28;19909;-74
2023/01/31 00:12:11;;;;;;;;;;;3.00;99.90;;;;;;5054113;28;19952;-74
2023/01/31 00:14:37;;;;;;;;;;;3.10;99.90;;;;;;5054052;28;19908;-74
2023/01/31 00:17:02;;;;;;;;;;;3.20;99.90;;;;;;5054531;28;19919;-74
2023/01/31 00:19:28;;;;;;;;;;;3.20;99.90;;;;;;5052606;28;19916;-74
2023/01/31 00:21:53;;;;;;;;;;;3.20;99.90;;;;;;5052545;28;19996;-74
2023/01/31 00:24:18;;;;;;;;;;;3.30;99.90;;;;;;5053870;28;19944;-74
2023/01/31 00:26:44;;;;;;;;;;;3.50;99.90;;;;;;5054055;28;19909;-75
2023/01/31 00:29:10;;;;;;;;;;;3.40;99.90;;;;;;5053892;28;19919;-74
2023/01/31 00:31:35;;;;;;;;;;;3.40;99.90;;;;;;5052687;28;19999;-74
2023/01/31 00:34:01;;;;;;;;;;;3.40;99.90;;;;;;5054225;28;19916;-74
2023/01/31 00:36:28;;;;;;;;;;;3.40;99.90;;;;;;5053460;28;19913;-74
2023/01/31 00:38:55;;;;;;;;;;;3.40;99.90;;;;;;5053656;28;19958;-74
2023/01/31 00:41:21;;;;;;;;;;;3.30;99.90;;;;;;5052303;28;19913;-74
2023/01/31 00:43:47;;;;;;;;;;;3.30;99.90;;;;;;5052448;28;20271;-74
2023/01/31 00:46:15;;;;;;;;;;;3.40;99.90;;;;;;5053257;28;20131;-74
2023/01/31 00:48:40;;;;;;;;;;;3.40;99.90;;;;;;5052369;28;19913;-74
2023/01/31 00:51:06;;;;;;;;;;;3.40;99.90;;;;;;5053493;28;19912;-74
2023/01/31 00:53:31;;;;;;;;;;;3.30;99.90;;;;;;5053651;28;19937;-74
2023/01/31 00:56:01;;;;;;;;;;;3.30;99.90;;;;;;5052199;28;20448;-74
2023/01/31 00:58:27;;;;;;;;;;;3.30;99.90;;;;;;5053397;28;19909;-75
2023/01/31 01:00:52;;;;;;;;;;;3.30;99.90;;;;;;5053548;28;19979;-75
2023/01/31 01:03:18;;;;;;;;;;;3.30;99.90;;;;;;5053510;28;19909;-75
2023/01/31 01:05:43;;;;;;;;;;;3.30;99.90;;;;;;5053281;28;20306;-75
2023/01/31 01:08:09;;;;;;;;;;;3.30;99.90;;;;;;5053327;28;19909;-75
2023/01/31 01:10:35;;;;;;;;;;;3.30;99.90;;;;;;5053379;28;19915;-74
2023/01/31 01:13:00;;;;;;;;;;;3.40;99.90;;;;;;5053273;28;19919;-75
2023/01/31 01:15:26;;;;;;;;;;;3.30;99.90;;;;;;5052015;28;19909;-75
2023/01/31 01:17:51;;;;;;;;;;;3.30;99.90;;;;;;5052386;28;19917;-74
2023/01/31 01:20:17;;;;;;;;;;;3.40;99.90;;;;;;5051852;28;19916;-74
2023/01/31 01:22:42;;;;;;;;;;;3.40;99.90;;;;;;5053179;28;20395;-74
2023/01/31 01:25:08;;;;;;;;;;;3.40;99.90;;;;;;5053116;28;19912;-74
2023/01/31 01:27:34;;;;;;;;;;;3.50;99.90;;;;;;5053450;28;19916;-74
2023/01/31 01:30:00;;;;;;;;;;;3.60;99.90;;;;;;5053800;28;20363;-75
2023/01/31 01:32:27;;;;;;;;;;;3.70;99.90;;;;;;5053215;28;19909;-74
2023/01/31 01:34:52;;;;;;;;;;;3.60;99.90;;;;;;5051981;28;20252;-75
2023/01/31 01:37:20;;;;;;;;;;;3.60;99.90;;;;;;5053179;28;19909;-74
2023/01/31 01:39:47;;;;;;;;;;;3.60;99.90;;;;;;5052025;28;19909;-74
2023/01/31 01:42:16;;;;;;;;;;;3.50;99.90;;;;;;5053209;28;19909;-74
2023/01/31 01:44:41;;;;;;;;;;;3.50;99.90;;;;;;5053315;28;19913;-74
2023/01/31 01:47:22;;;;;;;;;;;3.60;99.90;;;;;;5053997;28;19909;-74
2023/01/31 01:49:50;;;;;;;;;;;3.70;99.90;;;;;;5057078;28;20003;-74
2023/01/31 01:52:16;;;;;;;;;;;3.70;99.90;;;;;;5056735;28;20390;-74
2023/01/31 01:55:08;;;;;;;;;;;3.70;99.90;;;;;;5056880;28;20295;-74
2023/01/31 01:57:36;;;;;;;;;;;3.70;99.90;;;;;;5040619;28;19909;-75
2023/01/31 02:00:21;;;;;;;;;;;3.70;99.90;;;;;;5056600;28;19916;-75
2023/01/31 02:02:49;;;;;;;;;;;3.80;99.90;;;;;;5056646;28;19909;-74
2023/01/31 02:05:16;;;;;;;;;;;3.80;99.90;;;;;;5056572;28;19912;-74
2023/01/31 02:07:42;;;;;;;;;;;3.90;99.90;;;;;;5056595;28;19944;-74
2023/01/31 02:10:16;;;;;;;;;;;4.00;99.90;;;;;;5056506;28;19958;-74
2023/01/31 02:12:41;;;;;;;;;;;4.10;99.90;;;;;;5055094;28;20364;-75
2023/01/31 02:15:07;;;;;;;;;;;4.10;99.90;;;;;;5055512;28;19909;-75
2023/01/31 02:17:33;;;;;;;;;;;4.20;99.90;;;;;;5056926;28;19955;-75
2023/01/31 02:20:07;;;;;;;;;;;4.30;99.90;;;;;;5078162;23;20063;-76
2023/01/31 02:22:37;;;;;;;;;;;4.30;99.90;;;;;;5075408;28;19915;-76
2023/01/31 02:25:08;;;;;;;;;;;4.40;99.90;;;;;;5076624;28;19960;-76
2023/01/31 02:27:43;;;;;;;;;;;4.40;99.90;;;;;;5077054;28;20294;-75
2023/01/31 02:30:27;;;;;;;;;;;4.50;99.90;;;;;;5076193;28;20305;-75
2023/01/31 02:33:05;;;;;;;;;;;4.60;99.90;;;;;;5076644;28;19909;-76
2023/01/31 02:35:37;;;;;;;;;;;4.60;99.90;;;;;;5076373;28;19954;-76
2023/01/31 02:38:21;;;;;;;;;;;4.60;99.90;;;;;;5076676;28;20367;-75
2023/01/31 02:40:51;;;;;;;;;;;6.40;99.90;;;;;;5075150;28;19954;-77
2023/01/31 02:43:25;;;;;;;;;;;4.70;99.90;;;;;;5076460;28;19953;-76
2023/01/31 02:45:53;;;;;;;;;;;4.70;99.90;;;;;;5076711;28;19912;-76
2023/01/31 02:48:18;;;;;;;;;;;4.80;99.90;;;;;;5074571;28;19988;-76
2023/01/31 02:50:50;;;;;;;;;;;4.70;99.90;;;;;;5076548;28;19909;-76
2023/01/31 02:53:15;;;;;;;;;;;4.70;99.90;;;;;;5076196;28;19943;-76
2023/01/31 02:58:34;;;;;;;;;;;4.80;99.90;;;;;;5076886;28;19919;-76
2023/01/31 03:01:02;;;;;;;;;;;4.80;99.90;;;;;;5077219;28;19912;-76
2023/01/31 03:03:30;;;;;;;;;;;4.80;99.90;;;;;;5075896;28;19909;-76
2023/01/31 03:06:21;;;;;;;;;;;4.90;99.90;;;;;;5076311;28;20291;-75
2023/01/31 03:08:49;;;;;;;;;;;4.90;99.90;;;;;;5076662;28;20018;-76
2023/01/31 03:11:15;;;;;;;;;;;4.90;99.90;;;;;;5074885;28;19909;-76
2023/01/31 03:13:46;;;;;;;;;;;4.90;99.90;;;;;;5076324;28;20382;-76
2023/01/31 03:19:01;;;;;;;;;;;4.90;99.90;;;;;;5076280;28;19927;-75
2023/01/31 03:21:31;;;;;;;;;;;4.90;99.90;;;;;;5076787;28;19909;-75
2023/01/31 03:23:57;;;;;;;;;;;4.90;99.90;;;;;;5075727;28;20389;-75
2023/01/31 03:26:24;;;;;;;;;;;4.90;99.90;;;;;;5076125;28;19908;-75
2023/01/31 03:28:53;;;;;;;;;;;4.90;99.90;;;;;;5076109;28;19920;-75
2023/01/31 03:31:27;;;;;;;;;;;4.90;99.90;;;;;;5075825;28;19975;-75
2023/01/31 03:33:55;;;;;;;;;;;4.90;99.90;;;;;;5076027;28;19908;-75
2023/01/31 03:36:27;;;;;;;;;;;4.80;99.90;;;;;;5075778;28;19908;-75
2023/01/31 03:38:52;;;;;;;;;;;4.80;99.90;;;;;;5073976;28;19956;-76
2023/01/31 03:41:38;;;;;;;;;;;4.80;99.90;;;;;;5075015;28;19931;-76
2023/01/31 03:44:30;;;;;;;;;;;4.80;99.90;;;;;;5073879;28;20309;-75
2023/01/31 03:46:59;;;;;;;;;;;4.70;99.90;;;;;;5070060;28;19908;-75
2023/01/31 03:49:26;;;;;;;;;;;4.80;99.90;;;;;;5075818;28;19908;-75
2023/01/31 03:51:53;;;;;;;;;;;4.80;99.90;;;;;;5073520;28;19908;-76
2023/01/31 03:54:24;;;;;;;;;;;4.80;99.90;;;;;;5075132;28;19912;-76
2023/01/31 03:56:59;;;;;;;;;;;4.90;99.90;;;;;;5075000;28;19908;-76
2023/01/31 03:59:27;;;;;;;;;;;4.70;99.90;;;;;;5075858;28;20367;-76
2023/01/31 04:01:54;;;;;;;;;;;4.80;99.90;;;;;;5075208;28;19908;-76
2023/01/31 04:04:20;;;;;;;;;;;4.70;99.90;;;;;;5073651;28;20264;-76
2023/01/31 04:06:45;;;;;;;;;;;4.70;99.90;;;;;;5075436;28;19915;-76
2023/01/31 04:09:11;;;;;;;;;;;4.60;99.90;;;;;;5073248;28;19909;-76
2023/01/31 04:11:38;;;;;;;;;;;4.60;99.90;;;;;;5074098;28;19923;-76
2023/01/31 04:14:03;;;;;;;;;;;4.60;99.90;;;;;;5074778;28;19931;-76
2023/01/31 04:16:29;;;;;;;;;;;4.60;99.90;;;;;;5074806;28;20406;-75
2023/01/31 04:18:55;;;;;;;;;;;4.50;99.90;;;;;;5073104;28;19975;-76
2023/01/31 04:21:21;;;;;;;;;;;4.60;99.90;;;;;;5075410;28;20428;-76
2023/01/31 04:23:46;;;;;;;;;;;4.70;99.90;;;;;;5074842;28;19961;-76
2023/01/31 04:26:12;;;;;;;;;;;4.80;99.90;;;;;;5073449;28;19958;-76
2023/01/31 04:28:37;;;;;;;;;;;4.80;99.90;;;;;;5072930;28;20321;-75
2023/01/31 04:31:03;;;;;;;;;;;4.90;99.90;;;;;;5073804;28;20407;-75
2023/01/31 04:33:28;;;;;;;;;;;4.90;99.90;;;;;;5073875;28;19912;-76
2023/01/31 04:35:54;;;;;;;;;;;4.90;99.90;;;;;;5073999;28;20034;-75
2023/01/31 04:38:19;;;;;;;;;;;4.90;99.90;;;;;;5072652;28;19912;-75
2023/01/31 04:40:45;;;;;;;;;;;4.90;99.90;;;;;;5074425;28;19916;-75
2023/01/31 04:43:11;;;;;;;;;;;4.90;99.90;;;;;;5072564;28;20434;-75
2023/01/31 04:45:36;;;;;;;;;;;5.00;99.90;;;;;;5072429;28;19912;-75
2023/01/31 04:48:02;;;;;;;;;;;4.90;99.90;;;;;;5072425;28;19919;-77
2023/01/31 04:50:28;;;;;;;;;;;5.00;99.90;;;;;;5073718;28;20359;-75
2023/01/31 04:52:54;;;;;;;;;;;5.00;99.90;;;;;;5073602;28;19914;-75
2023/01/31 04:55:20;;;;;;;;;;;5.00;99.90;;;;;;5073750;28;19909;-75
2023/01/31 04:57:45;;;;;;;;;;;5.00;99.90;;;;;;5073770;28;19909;-75
2023/01/31 05:00:11;;;;;;;;;;;5.10;99.90;;;;;;5072515;28;19913;-75
2023/01/31 05:02:37;;;;;;;;;;;5.10;99.90;;;;;;5073634;28;20018;-75
2023/01/31 05:05:03;;;;;;;;;;;5.10;99.90;;;;;;5073678;28;20418;-75
2023/01/31 05:07:28;;;;;;;;;;;5.10;99.90;;;;;;5074114;28;20367;-75
2023/01/31 05:09:54;;;;;;;;;;;5.00;99.90;;;;;;5073443;28;19917;-75
2023/01/31 05:12:19;;;;;;;;;;;5.10;99.90;;;;;;5073457;28;19995;-75
2023/01/31 05:14:45;;;;;;;;;;;5.10;99.90;;;;;;5072371;28;19916;-76
2023/01/31 05:17:10;;;;;;;;;;;5.10;99.90;;;;;;5072282;28;19908;-75
2023/01/31 05:19:36;;;;;;;;;;;5.20;99.90;;;;;;5072794;28;19970;-75
2023/01/31 05:22:01;;;;;;;;;;;5.20;99.90;;;;;;5076157;28;19913;-74
2023/01/31 05:24:28;;;;;;;;;;;5.70;99.90;;;;;;5077402;28;20347;-75
2023/01/31 05:26:57;;;;;;;;;;;5.20;99.90;;;;;;5077543;28;20002;-75
2023/01/31 05:29:26;;;;;;;;;;;5.20;99.90;;;;;;5077798;28;20265;-75
2023/01/31 05:31:52;;;;;;;;;;;5.20;99.90;;;;;;5076553;28;20326;-75
2023/01/31 05:34:18;;;;;;;;;;;5.20;99.90;;;;;;5078071;28;19959;-76
2023/01/31 05:36:43;;;;;;;;;;;5.20;99.90;;;;;;5077740;28;19909;-76
2023/01/31 05:39:09;;;;;;;;;;;5.20;99.90;;;;;;5078194;28;19908;-76
2023/01/31 05:41:34;;;;;;;;;;;5.20;99.90;;;;;;5077656;28;19973;-76
2023/01/31 05:44:00;;;;;;;;;;;5.20;99.90;;;;;;5076080;28;19908;-76
2023/01/31 05:46:25;;;;;;;;;;;5.20;99.90;;;;;;5077176;28;19915;-76
2023/01/31 05:48:51;;;;;;;;;;;5.10;99.90;;;;;;5077538;28;19912;-75
2023/01/31 05:51:16;;;;;;;;;;;5.20;99.90;;;;;;5076182;28;19958;-76
2023/01/31 05:53:42;;;;;;;;;;;5.20;99.90;;;;;;5075631;28;19919;-75
2023/01/31 05:56:07;;;;;;;;;;;5.20;99.90;;;;;;5076046;28;19914;-76
2023/01/31 05:58:33;;;;;;;;;;;5.20;99.90;;;;;;5078070;28;20335;-75
2023/01/31 06:00:58;;;;;;;;;;;5.20;99.90;;;;;;5075892;28;19908;-75
2023/01/31 06:03:24;;;;;;;;;;;5.20;99.90;;;;;;5077301;28;19916;-76
2023/01/31 06:05:49;;;;;;;;;;;5.20;99.90;;;;;;5076114;28;20401;-75
2023/01/31 06:08:16;;;;;;;;;;;5.20;99.90;;;;;;5075867;28;19909;-75
2023/01/31 06:10:42;;;;;;;;;;;5.30;99.90;;;;;;5076966;28;19919;-75
2023/01/31 06:13:07;;;;;;;;;;;5.30;99.90;;;;;;5075807;28;19909;-75
2023/01/31 06:15:33;;;;;;;;;;;5.20;99.90;;;;;;5077088;28;19908;-75
2023/01/31 06:17:58;;;;;;;;;;;5.30;99.90;;;;;;5077423;28;19909;-75
2023/01/31 06:20:24;;;;;;;;;;;5.20;99.90;;;;;;5075365;28;19917;-75
2023/01/31 06:22:50;;;;;;;;;;;5.30;99.90;;;;;;5076646;28;19909;-74
2023/01/31 06:25:15;;;;;;;;;;;5.30;99.90;;;;;;5076727;28;19935;-74
2023/01/31 06:27:41;;;;;;;;;;;5.30;99.90;;;;;;5075512;28;19991;-75
2023/01/31 06:30:06;;;;;;;;;;;5.20;99.90;;;;;;5075364;28;19963;-75
2023/01/31 06:32:32;;;;;;;;;;;5.20;99.90;;;;;;5075017;28;19913;-75
2023/01/31 06:34:57;;;;;;;;;;;5.20;99.90;;;;;;5076562;28;19908;-75
2023/01/31 06:37:23;;;;;;;;;;;5.20;99.90;;;;;;5075309;28;19999;-75
2023/01/31 06:39:48;;;;;;;;;;;5.30;99.90;;;;;;5077241;28;19912;-76
2023/01/31 06:42:14;;;;;;;;;;;5.30;99.90;;;;;;5076615;28;19912;-75
2023/01/31 06:44:39;;;;;;;;;;;5.30;99.90;;;;;;5076333;28;19963;-74
2023/01/31 06:47:05;;;;;;;;;;;5.30;99.90;;;;;;5075400;28;19957;-75
2023/01/31 06:49:30;;;;;;;;;;;5.30;99.90;;;;;;5076370;28;19974;-76
2023/01/31 06:51:56;;;;;;;;;;;5.40;99.90;;;;;;5075927;28;19987;-76
2023/01/31 06:54:21;;;;;;;;;;;5.40;99.90;;;;;;5076445;28;20279;-75
2023/01/31 06:56:47;;;;;;;;;;;5.40;99.90;;;;;;5076379;28;19916;-76
2023/01/31 06:59:12;;;;;;;;;;;5.40;99.90;;;;;;5075742;28;19962;-76
2023/01/31 07:01:38;;;;;;;;;;;5.40;99.90;;;;;;5074299;28;19908;-75
2023/01/31 07:04:03;;;;;;;;;;;7.40;99.90;;;;;;5075432;28;19961;-75
2023/01/31 07:06:29;;;;;;;;;;;5.40;99.90;;;;;;5075611;28;19908;-76
2023/01/31 07:08:54;;;;;;;;;;;5.40;99.90;;;;;;5074197;28;19909;-76
2023/01/31 07:11:20;;;;;;;;;;;5.40;99.90;;;;;;5075382;28;19909;-76
2023/01/31 07:13:46;;;;;;;;;;;5.40;99.90;;;;;;5074005;28;20425;-75
2023/01/31 07:16:12;;;;;;;;;;;5.40;99.90;;;;;;5075225;28;19958;-75
2023/01/31 07:18:38;;;;;;;;;;;5.50;99.90;;;;;;5073957;28;19920;-76
2023/01/31 07:21:05;;;;;;;;;;;5.40;99.90;;;;;;5075074;28;19914;-75
2023/01/31 07:23:30;;;;;;;;;;;5.40;99.90;;;;;;5075647;28;20347;-75
2023/01/31 07:25:56;;;;;;;;;;;5.40;99.90;;;;;;5074142;28;20015;-75
2023/01/31 07:28:21;;;;;;;;;;;5.40;99.90;;;;;;5074964;28;19912;-75
2023/01/31 07:30:47;;;;;;;;;;;5.50;99.90;;;;;;5074910;28;19915;-74
2023/01/31 07:33:12;;;;;;;;;;;5.50;99.90;;;;;;5074988;28;19908;-74
2023/01/31 07:35:40;;;;;;;;;;;5.50;99.90;;;;;;5073895;28;20283;-74
2023/01/31 07:38:05;;;;;;;;;;;5.50;99.90;;;;;;5074773;28;19916;-75
2023/01/31 07:40:31;;;;;;;;;;;5.50;99.90;;;;;;5074668;28;19909;-75
2023/01/31 07:42:57;;;;;;;;;;;7.50;99.90;;;;;;5074749;28;19995;-75
2023/01/31 07:45:23;;;;;;;;;;;5.50;99.90;;;;;;5073593;28;19961;-75
2023/01/31 07:47:48;;;;;;;;;;;5.50;99.90;;;;;;5073257;28;19912;-74
2023/01/31 07:50:14;;;;;;;;;;;5.70;99.90;;;;;;5074513;28;20355;-75
2023/01/31 07:52:39;;;;;;;;;;;5.50;99.90;;;;;;5073136;28;19915;-74
2023/01/31 07:55:05;;;;;;;;;;;5.50;99.90;;;;;;5073368;28;19909;-74
2023/01/31 07:57:31;;;;;;;;;;;5.50;99.90;;;;;;5074953;28;19912;-75
2023/01/31 07:59:56;;;;;;;;;;;5.50;99.90;;;;;;5074381;28;19944;-74
2023/01/31 08:05:07;;;;;;;;;;;5.50;99.90;;;;;;5074830;28;19966;-74
2023/01/31 08:07:33;;;;;;;;;;;5.60;99.90;;;;;;5074177;28;19915;-74
2023/01/31 08:09:58;;;;;;;;;;;5.60;99.90;;;;;;5073959;28;20313;-74
2023/01/31 08:12:24;;;;;;;;;;;5.70;99.90;;;;;;5074612;28;19934;-74
2023/01/31 08:14:49;;;;;;;;;;;5.70;99.90;;;;;;5072593;28;19909;-74
2023/01/31 08:17:15;;;;;;;;;;;5.70;99.90;;;;;;5072762;28;20279;-74
2023/01/31 08:19:40;;;;;;;;;;;5.80;99.90;;;;;;5074062;28;19935;-75
2023/01/31 08:22:06;;;;;;;;;;;5.60;99.90;;;;;;5072670;28;20252;-75
2023/01/31 08:24:31;;;;;;;;;;;5.80;99.90;;;;;;5073768;28;19916;-75
2023/01/31 08:26:58;;;;;;;;;;;5.80;99.90;;;;;;5073892;28;19909;-73
2023/01/31 08:29:23;;;;;;;;;;;5.80;99.90;;;;;;5073850;28;19938;-74
2023/01/31 08:31:49;;;;;;;;;;;5.80;99.90;;;;;;5073197;28;20253;-73
2023/01/31 08:34:15;;;;;;;;;;;5.80;99.90;;;;;;5073876;28;19994;-73
2023/01/31 08:36:41;;;;;;;;;;;5.90;99.90;;;;;;5073710;28;19954;-75
2023/01/31 08:39:07;;;;;;;;;;;5.90;99.90;;;;;;5073736;28;20386;-73
2023/01/31 08:41:33;;;;;;;;;;;5.90;99.90;;;;;;5073623;28;19909;-74
2023/01/31 08:43:59;;;;;;;;;;;6.00;99.90;;;;;;5073580;28;19915;-77
2023/01/31 08:46:26;;;;;;;;;;;5.90;99.90;;;;;;5073739;28;19944;-77
2023/01/31 08:48:52;;;;;;;;;;;5.80;99.90;;;;;;5073601;28;19913;-76
2023/01/31 08:51:17;;;;;;;;;;;5.90;99.90;;;;;;5072222;28;19908;-76
2023/01/31 08:53:43;;;;;;;;;;;5.90;99.90;;;;;;5073598;28;19957;-76
2023/01/31 08:56:09;;;;;;;;;;;5.90;99.90;;;;;;5073196;28;19916;-77
2023/01/31 08:58:36;;;;;;;;;;;5.90;99.90;;;;;;5073894;28;20011;-76
2023/01/31 09:01:12;;;;;;;;;;;6.00;99.90;;;;;;5072429;28;19944;-76
2023/01/31 09:03:38;;;;;;;;;;;6.00;99.90;;;;;;5073873;28;19908;-75
2023/01/31 09:06:09;;;;;;;;;;;6.10;99.90;;;;;;5074474;28;20278;-76
2023/01/31 09:08:35;;;;;;;;;;;6.10;99.90;;;;;;5072991;28;20335;-77
2023/01/31 09:11:00;;;;;;;;;;;6.10;99.90;;;;;;5074460;28;19908;-78
2023/01/31 09:13:27;;;;;;;;;;;6.10;99.90;;;;;;5073883;28;19916;-76
2023/01/31 09:15:59;;;;;;;;;;;6.10;99.90;;;;;;5073852;28;20435;-76
2023/01/31 09:18:25;;;;;;;;;;;6.10;99.90;;;;;;5072308;28;19908;-76
2023/01/31 09:20:50;;;;;;;;;;;6.10;99.90;;;;;;5073508;28;19920;-75
2023/01/31 09:23:18;;;;;;;;;;;6.20;99.90;;;;;;5074455;28;19909;-77
2023/01/31 09:25:43;;;;;;;;;;;6.20;99.90;;;;;;5074043;28;19912;-75
2023/01/31 09:28:09;;;;;;;;;;;6.30;99.90;;;;;;5073391;28;19931;-75
2023/01/31 09:30:34;;;;;;;;;;;6.30;99.90;;;;;;5073587;28;20003;-75
2023/01/31 09:33:00;;;;;;;;;;;6.30;99.90;;;;;;5073688;28;19916;-74
2023/01/31 09:35:26;;;;;;;;;;;6.30;99.90;;;;;;5073548;28;19999;-75
2023/01/31 09:37:51;;;;;;;;;;;6.30;99.90;;;;;;5072183;28;19913;-74
2023/01/31 09:40:25;;;;;;;;;;;7.10;99.90;;;;;;5073779;28;19908;-75
2023/01/31 09:42:52;;;;;;;;;;;6.20;99.90;;;;;;5073516;28;19909;-75
2023/01/31 09:45:37;;;;;;;;;;;6.20;99.90;;;;;;5073618;28;19919;-75
2023/01/31 09:48:04;;;;;;;;;;;6.20;99.90;;;;;;5073783;28;20347;-74
2023/01/31 09:50:35;;;;;;;;;;;6.20;99.90;;;;;;5073440;28;19909;-75
2023/01/31 09:53:01;;;;;;;;;;;6.20;99.90;;;;;;5072104;28;19966;-75
2023/01/31 09:55:35;;;;;;;;;;;6.20;99.90;;;;;;5072178;28;19909;-75
2023/01/31 09:58:01;;;;;;;;;;;6.20;99.90;;;;;;5073966;28;20282;-75
2023/01/31 10:00:32;;;;;;;;;;;6.90;99.90;;;;;;5071891;28;19908;-75
2023/01/31 10:03:17;;;;;;;;;;;6.30;99.90;;;;;;5073434;28;19908;-75
2023/01/31 10:05:45;;;;;;;;;;;6.40;99.90;;;;;;5072224;28;19916;-74
2023/01/31 10:08:14;;;;;;;;;;;6.60;99.90;;;;;;5073732;28;19909;-75
2023/01/31 10:10:42;;;;;;;;;;;6.70;99.90;;;;;;5076639;28;20004;-75
2023/01/31 10:13:13;;;;;;;;;;;6.70;99.90;;;;;;5076414;28;19909;-74
2023/01/31 10:15:44;;;;;;;;;;;6.80;99.90;;;;;;5076423;28;20287;-75
2023/01/31 10:18:12;;;;;;;;;;;6.80;99.90;;;;;;5074995;28;19908;-75
2023/01/31 10:20:41;;;;;;;;;;;8.20;99.90;;;;;;5075052;28;19917;-75
2023/01/31 10:23:13;;;;;;;;;;;6.80;99.90;;;;;;5076203;28;19916;-75
2023/01/31 10:25:45;;;;;;;;;;;6.90;99.90;;;;;;5076637;28;19955;-75
2023/01/31 10:28:20;;;;;;;;;;;6.90;99.90;;;;;;5076150;28;19948;-75
2023/01/31 10:31:09;;;;;;;;;;;7.00;99.90;;;;;;5074750;28;19909;-75
2023/01/31 10:33:37;;;;;;;;;;;7.00;99.90;;;;;;5076637;28;19909;-75
2023/01/31 10:36:08;;;;;;;;;;;7.00;99.90;;;;;;5074567;28;19927;-75
2023/01/31 10:38:40;;;;;;;;;;;7.00;99.90;;;;;;5076171;28;20000;-75
2023/01/31 10:41:17;;;;;;;;;;;7.10;99.90;;;;;;5076048;28;20007;-75
2023/01/31 10:43:56;;;;;;;;;;;7.10;99.90;;;;;;5075835;28;20337;-75
2023/01/31 10:46:21;;;;;;;;;;;7.10;99.90;;;;;;5076302;28;19925;-75
2023/01/31 10:48:47;;;;;;;;;;;7.20;99.90;;;;;;5075760;28;20011;-74
2023/01/31 10:51:13;;;;;;;;;;;7.30;99.90;;;;;;5075612;28;20432;-75
2023/01/31 10:54:11;;;;;;;;;;;7.40;99.90;;;;;;5074404;28;19909;-75
2023/01/31 10:56:44;;;;;;;;;;;7.40;99.90;;;;;;5063976;28;19915;-75
2023/01/31 10:59:30;;;;;;;;;;;7.40;99.90;;;;;;5076354;28;19908;-74
2023/01/31 11:01:57;;;;;;;;;;;7.40;99.90;;;;;;5073224;28;19961;-75
2023/01/31 11:04:41;;;;;;;;;;;7.40;99.90;;;;;;5074156;28;20392;-75
2023/01/31 11:07:08;;;;;;;;;;;7.50;99.90;;;;;;5075249;28;19916;-75
2023/01/31 11:09:38;;;;;;;;;;;7.40;99.90;;;;;;5075312;28;19908;-75
2023/01/31 11:12:04;;;;;;;;;;;7.40;99.90;;;;;;5075145;28;19908;-75
2023/01/31 11:14:30;;;;;;;;;;;7.30;99.90;;;;;;5073874;28;19909;-75
2023/01/31 11:17:16;;;;;;;;;;;7.40;99.90;;;;;;5073806;28;19908;-75
2023/01/31 11:19:49;;;;;;;;;;;7.40;99.90;;;;;;5074200;28;19970;-75
2023/01/31 11:22:25;;;;;;;;;;;7.40;99.90;;;;;;5075038;28;19916;-75
2023/01/31 11:24:51;;;;;;;;;;;7.40;99.90;;;;;;5074892;28;19920;-75
2023/01/31 11:27:37;;;;;;;;;;;7.40;99.90;;;;;;5074908;28;20015;-75
2023/01/31 11:30:04;;;;;;;;;;;7.50;99.90;;;;;;5073583;28;19913;-75
2023/01/31 11:32:31;;;;;;;;;;;7.50;99.90;;;;;;5073543;28;19915;-75
2023/01/31 11:34:56;;;;;;;;;;;7.50;99.90;;;;;;5074822;28;19909;-75
2023/01/31 11:37:22;;;;;;;;;;;7.50;99.90;;;;;;5073480;28;20354;-75
2023/01/31 11:40:00;;;;;;;;;;;7.50;99.90;;;;;;5073576;28;19909;-75
2023/01/31 11:42:26;;;;;;;;;;;7.50;99.90;;;;;;5073461;28;20460;-75
2023/01/31 11:44:55;;;;;;;;;;;7.60;99.90;;;;;;5075101;28;20015;-75
2023/01/31 11:47:24;;;;;;;;;;;7.60;99.90;;;;;;5073287;28;19927;-75
2023/01/31 11:49:50;;;;;;;;;;;7.60;99.90;;;;;;5074422;28;19908;-75
2023/01/31 11:52:15;;;;;;;;;;;7.70;99.90;;;;;;5073154;28;20371;-75
2023/01/31 11:54:45;;;;;;;;;;;7.70;99.90;;;;;;5074412;28;19943;-75
2023/01/31 11:57:15;;;;;;;;;;;7.70;99.90;;;;;;5073899;28;19912;-75
2023/01/31 11:59:41;;;;;;;;;;;7.70;99.90;;;;;;5073572;28;20291;-74
2023/01/31 12:02:18;;;;;;;;;;;7.80;99.90;;;;;;5074922;28;19914;-75
2023/01/31 12:04:44;;;;;;;;;;;7.90;99.90;;;;;;5075254;28;19912;-74
2023/01/31 12:07:27;;;;;;;;;;;7.90;99.90;;;;;;5074741;28;19930;-74
2023/01/31 12:09:53;;;;;;;;;;;7.90;99.90;;;;;;5073683;28;19915;-75
2023/01/31 12:12:36;;;;;;;;;;;8.00;99.90;;;;;;5074449;28;20299;-74
2023/01/31 12:15:04;;;;;;;;;;;8.00;99.90;;;;;;5074628;28;20003;-74
2023/01/31 12:17:32;;;;;;;;;;;8.10;99.90;;;;;;5072832;28;19912;-74
2023/01/31 12:20:13;;;;;;;;;;;8.10;99.90;;;;;;5074267;28;19917;-74
2023/01/31 12:22:45;;;;;;;;;;;8.20;99.90;;;;;;5073005;28;19908;-74
2023/01/31 12:25:27;;;;;;;;;;;8.30;99.90;;;;;;5074341;28;19912;-74
2023/01/31 12:28:11;;;;;;;;;;;8.40;99.90;;;;;;5073371;28;19912;-76
2023/01/31 12:30:45;;;;;;;;;;;8.40;99.90;;;;;;5073994;28;19909;-76
2023/01/31 12:33:21;;;;;;;;;;;8.40;99.90;;;;;;5073301;28;19908;-75
2023/01/31 12:35:55;;;;;;;;;;;8.50;99.90;;;;;;5072959;28;19916;-75
2023/01/31 12:38:24;;;;;;;;;;;8.50;99.90;;;;;;5074263;28;19989;-74
2023/01/31 12:40:49;;;;;;;;;;;8.60;99.90;;;;;;5072605;28;19950;-75
2023/01/31 12:43:20;;;;;;;;;;;8.70;99.90;;;;;;5074163;28;19958;-75
2023/01/31 12:46:08;;;;;;;;;;;8.80;99.90;;;;;;5072981;28;20379;-75
2023/01/31 12:48:52;;;;;;;;;;;8.80;99.90;;;;;;5033508;28;19909;-75
2023/01/31 12:51:47;;;;;;;;;;;8.90;99.90;;;;;;5072924;28;19908;-75
2023/01/31 12:54:19;;;;;;;;;;;9.00;99.90;;;;;;5060698;28;19999;-74
2023/01/31 12:57:03;;;;;;;;;;;9.00;99.90;;;;;;5072786;28;19909;-74
2023/01/31 12:59:46;;;;;;;;;;;9.00;99.90;;;;;;5074393;28;19909;-75
2023/01/31 13:02:24;;;;;;;;;;;9.10;99.90;;;;;;5072849;28;19913;-74
2023/01/31 13:04:58;;;;;;;;;;;9.00;99.90;;;;;;5072741;28;19919;-74
2023/01/31 13:07:42;;;;;;;;;;;9.00;99.90;;;;;;5074380;28;20351;-75
2023/01/31 13:10:25;;;;;;;;;;;9.00;99.90;;;;;;5073735;28;20375;-75
2023/01/31 13:12:50;;;;;;;;;;;9.10;99.90;;;;;;5072482;28;19915;-75
2023/01/31 13:15:36;;;;;;;;;;;9.20;99.90;;;;;;5072846;28;20364;-74
2023/01/31 13:18:03;;;;;;;;;;;9.30;99.90;;;;;;5073445;28;19912;-75
2023/01/31 13:20:35;;;;;;;;;;;9.30;99.90;;;;;;5072334;28;19917;-74
2023/01/31 13:23:03;;;;;;;;;;;9.40;99.90;;;;;;5074292;28;19909;-74
2023/01/31 13:25:29;;;;;;;;;;;9.40;99.90;;;;;;5072446;28;20019;-74
2023/01/31 13:27:59;;;;;;;;;;;9.50;99.90;;;;;;5072623;28;19997;-74
2023/01/31 13:30:39;;;;;;;;;;;9.30;99.90;;;;;;5073623;28;19976;-74
2023/01/31 13:33:13;;;;;;;;;;;9.30;99.90;;;;;;5073755;28;19909;-75
2023/01/31 13:35:40;;;;;;;;;;;10.20;99.90;;;;;;5072511;28;19909;-75
2023/01/31 13:38:12;;;;;;;;;;;9.30;99.90;;;;;;5073825;28;19916;-75
2023/01/31 13:40:43;;;;;;;;;;;9.20;99.90;;;;;;5073552;28;19912;-75
2023/01/31 13:43:14;;;;;;;;;;;9.30;99.90;;;;;;5074368;28;19915;-75
2023/01/31 13:45:52;;;;;;;;;;;9.30;99.90;;;;;;5076008;28;20294;-75
2023/01/31 13:48:22;;;;;;;;;;;9.40;99.90;;;;;;5077305;28;19908;-75
2023/01/31 13:51:06;;;;;;;;;;;9.30;99.90;;;;;;5077866;28;19962;-75
2023/01/31 13:53:37;;;;;;;;;;;9.30;99.90;;;;;;5077810;28;19965;-74
2023/01/31 13:56:08;;;;;;;;;;;9.20;99.90;;;;;;5075980;28;19962;-75
2023/01/31 13:58:34;;;;;;;;;;;9.20;99.90;;;;;;5077299;28;19909;-74
2023/01/31 14:01:06;;;;;;;;;;;9.20;99.90;;;;;;5077083;28;19908;-74
2023/01/31 14:03:51;;;;;;;;;;;9.30;99.90;;;;;;5075779;28;19908;-75
2023/01/31 14:06:17;;;;;;;;;;;9.40;99.90;;;;;;5076856;28;19959;-75
2023/01/31 14:08:48;;;;;;;;;;;9.50;99.90;;;;;;5075241;28;19912;-75
2023/01/31 14:11:17;;;;;;;;;;;9.80;99.90;;;;;;5075065;28;19912;-75
2023/01/31 14:14:03;;;;;;;;;;;9.90;99.90;;;;;;5077073;28;19916;-75
2023/01/31 14:16:34;;;;;;;;;;;9.90;99.90;;;;;;5065292;28;19909;-75
2023/01/31 14:18:59;;;;;;;;;;;10.00;99.90;;;;;;5088239;23;20011;-74
2023/01/31 14:21:28;;;;;;;;;;;10.20;99.90;;;;;;5095147;28;20353;-74
2023/01/31 14:23:54;;;;;;;;;;;10.20;99.90;;;;;;5095138;28;19923;-74
2023/01/31 14:26:32;;;;;;;;;;;10.10;99.90;;;;;;5097008;28;19999;-74
2023/01/31 14:28:57;;;;;;;;;;;10.00;99.90;;;;;;5096441;28;19935;-74
2023/01/31 14:31:25;;;;;;;;;;;10.20;99.90;;;;;;5095031;28;19919;-74
2023/01/31 14:33:53;;;;;;;;;;;10.60;99.90;;;;;;5096360;28;19908;-74
2023/01/31 14:36:24;;;;;;;;;;;10.90;99.90;;;;;;5096167;28;20326;-74
2023/01/31 14:39:01;;;;;;;;;;;11.00;99.90;;;;;;5096245;28;19908;-74
2023/01/31 14:41:33;;;;;;;;;;;10.80;99.90;;;;;;5094784;28;19915;-74
2023/01/31 14:43:58;;;;;;;;;;;10.60;99.90;;;;;;5096060;28;19908;-74
2023/01/31 14:46:30;;;;;;;;;;;10.40;99.90;;;;;;5096021;28;19934;-74